Time;durP1;ratioP1;P1;durP2;ratioP2;P2;SDS_P1;SDS_P2;PMS_P1;PMS_P2;Temp;Humidity;BMP_temperature;BMP_pressure;BME280_temperature;BME280_humidity;BME280_pressure;Samples;Min_cycle;Max_cycle;Signal;HPM_P1;HPM_P2
2022/09/27 00:03:22;;;;;;;8.67;3.93;;;10.50;99.90;;;;;;2615734;39;20459;-68
2022/09/27 00:09:10;;;;;;;10.50;4.53;;;10.40;99.90;;;;;;2614389;54;20150;-69
2022/09/27 00:14:58;;;;;;;7.23;4.30;;;10.40;99.90;;;;;;2615248;46;20242;-69
2022/09/27 00:20:46;;;;;;;6.13;4.37;;;10.40;99.90;;;;;;2615446;54;20458;-70
2022/09/27 00:26:34;;;;;;;6.20;3.50;;;10.40;99.90;;;;;;2614393;54;20154;-70
2022/09/27 00:29:00;;;;;;;7.80;3.47;;;10.40;99.90;;;;;;2613542;54;20419;-71
2022/09/27 00:31:28;;;;;;;5.30;3.50;;;10.40;99.90;;;;;;2613715;54;20155;-71
2022/09/27 00:37:16;;;;;;;10.47;4.60;;;10.40;99.90;;;;;;2615165;54;20402;-70
2022/09/27 01:02:08;;;;;;;15.33;5.13;;;10.30;99.90;;;;;;2614835;54;20395;-70
2022/09/27 01:07:59;;;;;;;10.60;4.68;;;10.20;99.90;;;;;;2613402;54;20130;-69
2022/09/27 01:27:32;;;;;;;9.57;6.20;;;10.20;99.90;;;;;;2614937;54;20379;-70
2022/09/27 01:56:05;;;;;;;21.53;14.23;;;10.20;99.90;;;;;;2614392;54;20122;-69
2022/09/27 02:01:58;;;;;;;24.80;14.80;;;10.20;99.90;;;;;;2613415;54;20170;-70
2022/09/27 02:07:57;;;;;;;17.60;11.90;;;10.20;99.90;;;;;;2614651;54;20450;-68
2022/09/27 02:13:51;;;;;;;17.03;10.67;;;10.20;99.90;;;;;;2614850;54;20123;-69
2022/09/27 02:19:58;;;;;;;18.38;11.52;;;10.20;99.90;;;;;;2613781;54;20395;-69
2022/09/27 02:25:55;;;;;;;14.03;9.10;;;10.20;99.90;;;;;;2615445;39;20776;-70
2022/09/27 02:31:43;;;;;;;15.50;8.07;;;10.20;99.90;;;;;;2615122;54;20442;-70
2022/09/27 02:37:32;;;;;;;16.77;8.00;;;10.10;99.90;;;;;;2614696;54;20158;-71
2022/09/27 02:43:23;;;;;;;15.17;6.83;;;10.10;99.90;;;;;;2614171;54;20395;-71
2022/09/27 02:56:00;;;;;;;11.23;6.00;;;10.10;99.90;;;;;;2615813;54;20396;-69
2022/09/27 03:08:16;;;;;;;8.25;5.82;;;10.10;99.90;;;;;;2615335;54;20444;-70
2022/09/27 03:14:03;;;;;;;13.63;6.10;;;10.10;99.90;;;;;;2614071;54;20370;-70
2022/09/27 03:19:52;;;;;;;7.80;5.70;;;10.00;99.90;;;;;;2615291;54;20141;-70
2022/09/27 03:25:40;;;;;;;9.80;5.43;;;9.90;99.90;;;;;;2614627;54;20497;-69
2022/09/27 03:31:27;;;;;;;6.63;3.83;;;9.80;99.90;;;;;;2615584;54;20457;-69
2022/09/27 03:37:15;;;;;;;4.77;4.10;;;9.60;99.90;;;;;;2615233;54;20203;-69
2022/09/27 03:40:39;;;;;;;9.93;4.13;;;9.60;99.90;;;;;;2615062;39;21006;-69
2022/09/27 03:46:27;;;;;;;8.07;4.60;;;9.60;99.90;;;;;;2615313;54;20487;-69
2022/09/27 03:52:17;;;;;;;8.87;4.90;;;9.60;99.90;;;;;;2615736;54;20130;-70
2022/09/27 03:58:05;;;;;;;10.17;5.00;;;9.60;99.90;;;;;;2615389;54;20764;-68
2022/09/27 04:03:53;;;;;;;11.30;6.70;;;9.80;99.90;;;;;;2614384;54;20150;-68
2022/09/27 04:09:41;;;;;;;22.43;11.80;;;9.80;99.90;;;;;;2615047;54;20403;-69
2022/09/27 04:15:28;;;;;;;18.87;12.43;;;9.90;99.90;;;;;;2614928;54;20382;-69
2022/09/27 04:21:16;;;;;;;18.57;12.10;;;9.90;99.90;;;;;;2614113;54;20468;-68
2022/09/27 04:27:04;;;;;;;13.50;9.13;;;9.90;99.90;;;;;;2615071;54;21010;-69
2022/09/27 04:32:52;;;;;;;12.90;8.67;;;9.80;99.90;;;;;;2614563;54;20512;-69
2022/09/27 04:38:40;;;;;;;12.50;10.65;;;9.70;99.90;;;;;;2615331;54;20419;-68
2022/09/27 04:44:28;;;;;;;19.08;11.38;;;9.60;99.90;;;;;;2614207;54;20246;-69
2022/09/27 04:50:17;;;;;;;24.10;11.20;;;9.50;99.90;;;;;;2614506;54;20138;-71
2022/09/27 04:56:05;;;;;;;21.30;11.07;;;9.40;99.90;;;;;;2613597;54;20403;-68
2022/09/27 04:58:49;;;;;;;15.73;10.60;;;9.30;99.90;;;;;;2613622;54;20435;-67
2022/09/27 05:01:15;;;;;;;20.93;11.80;;;9.30;99.90;;;;;;2612237;39;20782;-70
2022/09/27 05:07:03;;;;;;;21.58;9.95;;;9.30;99.90;;;;;;2615041;54;20387;-70
2022/09/27 05:12:51;;;;;;;21.27;9.43;;;9.30;99.90;;;;;;2615357;54;20163;-69
2022/09/27 05:18:38;;;;;;;13.17;9.63;;;9.40;99.90;;;;;;2613581;54;20875;-71
2022/09/27 05:24:32;;;;;;;10.13;7.43;;;9.30;99.90;;;;;;2614627;54;20422;-69
2022/09/27 05:30:19;;;;;;;14.10;7.33;;;9.40;99.90;;;;;;2611477;46;20405;-69
2022/09/27 05:36:08;;;;;;;12.57;6.40;;;9.40;99.90;;;;;;2613745;54;20176;-70
2022/09/27 05:41:56;;;;;;;12.97;6.33;;;9.40;99.90;;;;;;2614567;54;20395;-69
2022/09/27 05:54:17;;;;;;;8.20;4.53;;;9.40;99.90;;;;;;2610918;54;20541;-69
2022/09/27 06:00:04;;;;;;;5.87;3.90;;;9.40;99.90;;;;;;2612816;54;20127;-68
2022/09/27 06:05:52;;;;;;;7.70;4.50;;;9.40;99.90;;;;;;2612732;46;20419;-69
2022/09/27 06:11:39;;;;;;;8.37;4.40;;;9.50;99.90;;;;;;2613331;54;20151;-69
2022/09/27 06:17:26;;;;;;;10.80;3.93;;;9.50;99.90;;;;;;2613485;54;20382;-69
2022/09/27 06:23:19;;;;;;;8.80;3.93;;;9.60;99.90;;;;;;2613124;54;20222;-73
2022/09/27 06:29:07;;;;;;;6.07;3.53;;;9.90;99.90;;;;;;2614056;39;20766;-68
2022/09/27 06:34:55;;;;;;;10.52;4.65;;;9.60;99.90;;;;;;2613839;54;20406;-69
2022/09/27 06:40:47;;;;;;;5.23;3.33;;;9.60;99.90;;;;;;2614577;54;20546;-69
2022/09/27 06:46:34;;;;;;;5.53;2.87;;;9.60;99.90;;;;;;2614023;54;20401;-68
2022/09/27 06:52:22;;;;;;;3.10;2.03;;;9.60;99.90;;;;;;2614237;54;20278;-68
2022/09/27 07:04:17;;;;;;;4.60;1.87;;;9.60;99.90;;;;;;2614926;54;20220;-68
2022/09/27 07:10:06;;;;;;;4.57;2.40;;;9.70;99.90;;;;;;2614874;54;20128;-71
2022/09/27 07:15:53;;;;;;;6.95;2.00;;;9.70;99.90;;;;;;2614244;54;20413;-70
2022/09/27 07:21:41;;;;;;;3.95;2.38;;;9.80;99.90;;;;;;2614419;39;20552;-70
2022/09/27 07:27:31;;;;;;;5.18;3.17;;;9.80;99.90;;;;;;2614552;54;20431;-70
2022/09/27 07:33:19;;;;;;;3.30;2.63;;;9.90;99.90;;;;;;2614299;54;20365;-70
2022/09/27 07:39:07;;;;;;;6.13;3.07;;;10.00;99.90;;;;;;2615549;54;20129;-71
2022/09/27 07:44:54;;;;;;;3.63;2.57;;;10.10;99.90;;;;;;2614811;46;20221;-70
2022/09/27 07:48:13;;;;;;;4.87;2.70;;;10.10;99.90;;;;;;2612835;47;20402;-70
2022/09/27 07:54:01;;;;;;;3.08;2.17;;;10.30;99.90;;;;;;2614922;54;20407;-70
2022/09/27 07:59:48;;;;;;;3.38;2.20;;;10.30;99.90;;;;;;2615149;54;20146;-70
2022/09/27 08:05:36;;;;;;;4.30;2.60;;;10.10;99.90;;;;;;2614217;54;20126;-72
2022/09/27 08:11:24;;;;;;;3.57;2.40;;;10.50;99.90;;;;;;2615780;54;20150;-69
2022/09/27 08:17:12;;;;;;;8.00;3.28;;;10.30;99.90;;;;;;2615290;54;20127;-69
2022/09/27 08:23:03;;;;;;;4.13;3.27;;;10.40;99.90;;;;;;2614781;54;20418;-70
2022/09/27 08:28:53;;;;;;;4.10;3.03;;;10.70;99.90;;;;;;2615046;54;20398;-70
2022/09/27 08:34:40;;;;;;;10.68;2.63;;;10.70;99.90;;;;;;2614612;54;20395;-70
2022/09/27 08:50:29;;;;;;;3.13;2.57;;;11.10;99.90;;;;;;2614220;54;20449;-69
2022/09/27 08:56:20;;;;;;;3.67;2.70;;;11.10;99.90;;;;;;2615191;54;20481;-71
2022/09/27 09:02:20;;;;;;;4.07;3.00;;;11.10;99.90;;;;;;2613415;54;20418;-71
2022/09/27 09:15:07;;;;;;;4.77;2.77;;;10.70;99.90;;;;;;2613852;54;20380;-70
2022/09/27 09:21:02;;;;;;;2.60;1.90;;;10.60;99.90;;;;;;2614403;54;20407;-70
2022/09/27 09:27:21;;;;;;;9.37;2.43;;;10.50;99.90;;;;;;2614367;54;20960;-71
2022/09/27 09:33:21;;;;;;;6.50;2.50;;;10.40;99.90;;;;;;2613490;54;21002;-69
2022/09/27 09:59:59;;;;;;;5.07;3.80;;;10.50;99.90;;;;;;2613004;54;20660;-71
2022/09/27 10:05:47;;;;;;;7.30;3.27;;;10.50;99.90;;;;;;2613626;54;20395;-70
2022/09/27 10:11:40;;;;;;;4.73;3.80;;;10.30;99.90;;;;;;2613236;54;20158;-70
2022/09/27 10:28:25;;;;;;;5.23;4.07;;;10.50;99.90;;;;;;2613415;54;20395;-70
2022/09/27 10:40:47;;;;;;;5.25;4.78;;;10.70;99.90;;;;;;2612917;54;20395;-68
2022/09/27 10:50:04;;;;;;;8.03;5.40;;;10.90;99.90;;;;;;2613611;54;20465;-68
2022/09/27 10:56:28;;;;;;;6.67;6.07;;;11.70;99.90;;;;;;2612609;39;20785;-69
2022/09/27 11:02:25;;;;;;;6.60;6.00;;;11.70;99.90;;;;;;2612611;54;20396;-71
2022/09/27 11:08:18;;;;;;;4.97;4.50;;;12.30;99.90;;;;;;2611831;54;20122;-69
2022/09/27 11:17:37;;;;;;;4.43;4.10;;;12.20;99.90;;;;;;2613943;54;21053;-68
2022/09/27 11:27:14;;;;;;;3.73;3.43;;;12.70;99.90;;;;;;2612446;54;20456;-70
2022/09/27 11:39:57;;;;;;;4.03;2.90;;;12.40;99.90;;;;;;2615441;54;20235;-69
2022/09/27 11:50:00;;;;;;;3.35;3.05;;;11.80;99.90;;;;;;2615218;54;20154;-70
2022/09/27 12:21:41;;;;;;;3.50;3.20;;;12.60;99.90;;;;;;2615166;54;20146;-70
2022/09/27 12:44:38;;;;;;;5.53;4.00;;;10.60;99.90;;;;;;2614213;54;20909;-70
2022/09/27 12:56:46;;;;;;;5.63;3.23;;;10.40;99.90;;;;;;2613403;54;20417;-71
2022/09/27 13:09:09;;;;;;;5.53;4.43;;;10.60;99.90;;;;;;2613009;54;21005;-70
2022/09/27 13:27:56;;;;;;;5.60;5.00;;;11.20;99.90;;;;;;2615364;54;20394;-70
2022/09/27 13:33:46;;;;;;;5.50;4.60;;;11.50;99.90;;;;;;2613660;54;20138;-69
2022/09/27 13:39:34;;;;;;;6.57;4.67;;;11.20;99.90;;;;;;2613558;54;20370;-69
2022/09/27 13:45:28;;;;;;;5.43;3.37;;;11.30;99.90;;;;;;2614707;54;20192;-70
2022/09/27 13:51:20;;;;;;;4.37;3.30;;;11.00;99.90;;;;;;2614340;54;20425;-69
2022/09/27 14:03:59;;;;;;;4.40;3.80;;;11.80;99.90;;;;;;2613610;54;20117;-69
2022/09/27 14:09:51;;;;;;;5.57;4.00;;;11.90;99.90;;;;;;2613959;39;20808;-69
2022/09/27 14:15:38;;;;;;;4.75;3.78;;;11.80;99.90;;;;;;2613471;54;20815;-70
2022/09/27 14:21:37;;;;;;;5.53;4.00;;;11.70;99.90;;;;;;2613350;54;20299;-70
2022/09/27 14:34:07;;;;;;;5.47;4.63;;;11.90;99.90;;;;;;2613824;54;20395;-70
2022/09/27 14:40:05;;;;;;;5.77;4.20;;;11.70;99.90;;;;;;2616025;54;20387;-71
2022/09/27 14:50:02;;;;;;;4.93;4.20;;;11.80;99.90;;;;;;2615844;54;20438;-70
2022/09/27 14:55:53;;;;;;;4.85;3.42;;;11.60;99.90;;;;;;2616289;46;20885;-71
2022/09/27 15:08:14;;;;;;;2.13;1.63;;;11.90;99.90;;;;;;2616109;54;20403;-69
2022/09/27 15:14:03;;;;;;;4.20;2.67;;;11.80;99.90;;;;;;2616087;54;20409;-70
2022/09/27 15:26:41;;;;;;;5.70;1.73;;;12.10;99.90;;;;;;2614413;54;20395;-73
2022/09/27 15:32:29;;;;;;;4.17;1.50;;;11.90;99.90;;;;;;2615400;54;20384;-70
2022/09/27 15:38:25;;;;;;;2.00;1.13;;;12.10;99.90;;;;;;2614830;54;20234;-70
2022/09/27 15:50:58;;;;;;;5.53;1.77;;;12.00;99.90;;;;;;2615247;54;20383;-70
2022/09/27 15:56:49;;;;;;;4.17;1.90;;;11.70;99.90;;;;;;2614909;54;20423;-70
2022/09/27 16:02:36;;;;;;;3.40;1.50;;;11.80;99.90;;;;;;2615527;54;20414;-71
2022/09/27 16:08:25;;;;;;;3.17;1.93;;;11.80;99.90;;;;;;2614999;54;20130;-70
2022/09/27 16:14:15;;;;;;;3.80;1.80;;;11.60;99.90;;;;;;2609463;54;20519;-69
2022/09/27 16:20:06;;;;;;;7.03;2.47;;;11.50;99.90;;;;;;2615681;54;20358;-70
2022/09/27 16:25:54;;;;;;;4.70;1.47;;;11.50;99.90;;;;;;2615818;54;20371;-70
2022/09/27 16:31:42;;;;;;;4.13;2.30;;;11.40;99.90;;;;;;2615540;54;20141;-70
2022/09/27 16:37:30;;;;;;;4.00;2.90;;;11.10;99.90;;;;;;2613494;31;20882;-70
2022/09/27 16:43:18;;;;;;;7.97;2.90;;;10.80;99.90;;;;;;2612112;54;20174;-75
2022/09/27 16:51:58;;;;;;;8.10;3.70;;;10.60;99.90;;;;;;2613293;39;20798;-72
2022/09/27 16:55:19;;;;;;;3.33;2.93;;;10.60;99.90;;;;;;2615044;54;20995;-73
2022/09/27 17:01:07;;;;;;;5.47;2.77;;;10.40;99.90;;;;;;2615273;54;20975;-73
2022/09/27 17:06:55;;;;;;;4.90;3.10;;;10.30;99.90;;;;;;2615234;54;20122;-73
2022/09/27 17:12:43;;;;;;;3.10;2.33;;;10.20;99.90;;;;;;2615731;39;20729;-73
2022/09/27 17:18:31;;;;;;;4.73;3.10;;;10.00;99.90;;;;;;2615425;54;20149;-72
2022/09/27 17:24:19;;;;;;;3.05;2.28;;;9.90;99.90;;;;;;2613888;54;20129;-72
2022/09/27 17:30:07;;;;;;;3.07;1.97;;;9.80;99.90;;;;;;2614172;39;20532;-72
2022/09/27 17:36:01;;;;;;;4.03;2.40;;;9.70;99.90;;;;;;2614948;54;20237;-73
2022/09/27 17:41:50;;;;;;;3.23;2.50;;;9.80;99.90;;;;;;2615691;54;20407;-73
2022/09/27 17:51:05;;;;;;;3.70;2.90;;;9.70;99.90;;;;;;2615326;54;20427;-74
2022/09/27 17:56:55;;;;;;;6.00;2.90;;;9.70;99.90;;;;;;2614668;54;20485;-73
2022/09/27 18:02:43;;;;;;;4.57;3.27;;;9.60;99.90;;;;;;2614501;54;20426;-72
2022/09/27 18:08:31;;;;;;;3.70;2.60;;;9.50;99.90;;;;;;2615545;54;20486;-73
2022/09/27 18:14:21;;;;;;;7.57;3.10;;;9.60;99.90;;;;;;2614784;54;20140;-73
2022/09/27 18:20:08;;;;;;;3.80;2.63;;;9.50;99.90;;;;;;2614240;54;20867;-73
2022/09/27 18:25:57;;;;;;;6.60;3.20;;;9.60;99.90;;;;;;2613930;54;20159;-72
2022/09/27 18:31:46;;;;;;;5.47;2.50;;;9.40;99.90;;;;;;2615243;54;20978;-74
2022/09/27 18:37:34;;;;;;;8.60;3.30;;;9.50;99.90;;;;;;2616124;39;20516;-72
2022/09/27 18:43:22;;;;;;;2.93;2.63;;;9.40;99.90;;;;;;2615230;54;20162;-73
2022/09/27 18:46:32;;;;;;;4.43;3.17;;;9.40;99.90;;;;;;2614366;47;20500;-73
2022/09/27 18:48:58;;;;;;;4.03;2.40;;;9.50;99.90;;;;;;2615873;54;20398;-74
2022/09/27 18:54:46;;;;;;;6.93;3.70;;;9.40;99.90;;;;;;2615499;54;20436;-73
2022/09/27 19:00:34;;;;;;;4.60;4.20;;;9.50;99.90;;;;;;2615783;54;20157;-73
2022/09/27 19:06:22;;;;;;;5.83;4.70;;;9.30;99.90;;;;;;2614656;54;20476;-73
2022/09/27 19:12:10;;;;;;;6.43;3.80;;;9.30;99.90;;;;;;2615855;54;20159;-73
2022/09/27 19:17:57;;;;;;;4.43;3.87;;;9.30;99.90;;;;;;2616920;54;20405;-73
2022/09/27 19:27:36;;;;;;;6.53;5.07;;;9.30;99.90;;;;;;2616683;54;20412;-75
2022/09/27 19:33:23;;;;;;;6.93;5.20;;;9.20;99.90;;;;;;2616103;54;20389;-74
2022/09/27 19:39:11;;;;;;;12.63;5.57;;;9.20;99.90;;;;;;2616432;54;20171;-75
2022/09/27 19:44:59;;;;;;;7.80;5.20;;;9.30;99.90;;;;;;2615256;54;20126;-73
2022/09/27 19:50:57;;;;;;;8.67;6.03;;;9.20;99.90;;;;;;2607031;54;20134;-73
2022/09/27 19:56:45;;;;;;;8.53;5.80;;;9.10;99.90;;;;;;2612461;54;20451;-74
2022/09/27 20:02:33;;;;;;;7.50;5.20;;;9.10;99.90;;;;;;2613479;54;20399;-74
2022/09/27 20:08:21;;;;;;;9.18;5.97;;;9.10;99.90;;;;;;2613443;54;20259;-74
2022/09/27 20:14:09;;;;;;;7.70;6.30;;;9.10;99.90;;;;;;2611830;54;20423;-74
2022/09/27 20:19:57;;;;;;;12.03;7.00;;;9.10;99.90;;;;;;2614326;54;20157;-73
2022/09/27 20:26:08;;;;;;;8.50;6.20;;;9.10;99.90;;;;;;2613037;54;20839;-74
2022/09/27 20:31:55;;;;;;;19.33;7.73;;;9.10;99.90;;;;;;2613460;54;20406;-73
2022/09/27 20:37:42;;;;;;;11.00;7.50;;;9.10;99.90;;;;;;2613594;54;20146;-73
2022/09/27 20:43:30;;;;;;;11.33;7.43;;;9.00;99.90;;;;;;2613555;54;20170;-73
2022/09/27 20:49:17;;;;;;;10.70;7.43;;;9.10;99.90;;;;;;2612943;54;20125;-72
2022/09/27 20:55:05;;;;;;;9.57;6.73;;;9.10;99.90;;;;;;2613188;54;20402;-73
2022/09/27 21:00:52;;;;;;;11.23;7.33;;;8.90;99.90;;;;;;2614981;54;20398;-73
2022/09/27 21:06:40;;;;;;;22.98;7.90;;;8.90;99.90;;;;;;2614454;54;20166;-73
2022/09/27 21:12:28;;;;;;;11.60;8.63;;;8.90;99.90;;;;;;2614208;54;21414;-72
2022/09/27 21:18:19;;;;;;;10.53;8.07;;;8.80;99.90;;;;;;2615282;54;20437;-73
2022/09/27 21:27:29;;;;;;;9.80;8.80;;;8.90;99.90;;;;;;2614653;54;20404;-73
2022/09/27 21:33:17;;;;;;;10.80;9.70;;;8.90;99.90;;;;;;2614338;54;20148;-74
2022/09/27 21:39:07;;;;;;;12.47;9.33;;;8.90;99.90;;;;;;2615636;54;20601;-73
2022/09/27 21:44:54;;;;;;;16.53;10.30;;;8.90;99.90;;;;;;2615165;54;20391;-73
2022/09/27 21:50:42;;;;;;;12.57;7.80;;;8.90;99.90;;;;;;2615200;39;20534;-72
2022/09/27 21:56:32;;;;;;;11.80;8.80;;;9.00;99.90;;;;;;2614636;54;20164;-73
2022/09/27 22:02:20;;;;;;;10.20;8.40;;;9.10;99.90;;;;;;2614492;54;20478;-72
2022/09/27 22:08:07;;;;;;;9.97;8.83;;;9.10;99.90;;;;;;2615445;54;20387;-73
2022/09/27 22:13:56;;;;;;;10.70;9.47;;;9.10;99.90;;;;;;2615112;54;20146;-72
2022/09/27 22:19:43;;;;;;;12.30;8.83;;;9.10;99.90;;;;;;2615082;39;20845;-72
2022/09/27 22:23:00;;;;;;;11.53;8.87;;;9.10;99.90;;;;;;2614070;54;20433;-72
2022/09/27 22:25:28;;;;;;;14.67;10.10;;;9.20;99.90;;;;;;2615467;54;20147;-72
2022/09/27 22:31:22;;;;;;;10.73;9.60;;;9.20;99.90;;;;;;2613134;39;20724;-72
2022/09/27 22:37:09;;;;;;;12.53;9.43;;;9.20;99.90;;;;;;2615428;54;20124;-72
2022/09/27 22:42:57;;;;;;;16.03;10.40;;;9.10;99.90;;;;;;2614684;46;20150;-73
2022/09/27 22:48:45;;;;;;;25.87;11.40;;;9.10;99.90;;;;;;2614592;39;20548;-73
2022/09/27 22:54:33;;;;;;;13.13;10.73;;;9.10;99.90;;;;;;2615554;54;20134;-71
2022/09/27 23:00:20;;;;;;;14.43;11.53;;;9.20;99.90;;;;;;2615669;39;20207;-72
2022/09/27 23:06:09;;;;;;;15.47;12.10;;;9.10;99.90;;;;;;2615879;54;20122;-72
2022/09/27 23:11:56;;;;;;;15.63;11.03;;;9.10;99.90;;;;;;2615587;54;20126;-73
2022/09/27 23:17:44;;;;;;;16.17;12.07;;;9.10;99.90;;;;;;2615144;54;20122;-72
2022/09/27 23:33:40;;;;;;;12.43;10.32;;;9.20;99.90;;;;;;2615676;54;20394;-74
2022/09/27 23:39:27;;;;;;;13.87;10.87;;;9.10;99.90;;;;;;2615971;54;20952;-73
2022/09/27 23:45:15;;;;;;;17.42;11.75;;;9.10;99.90;;;;;;2615966;54;20130;-73
2022/09/27 23:51:06;;;;;;;13.57;10.03;;;9.00;99.90;;;;;;2616128;54;20173;-73
2022/09/27 23:56:53;;;;;;;11.50;8.80;;;9.00;99.90;;;;;;2616055;54;20919;-72
